Asan, Guam
Current Conditions -  °F | °C
As of 6:54 PM on Saturday 25 Oct 2014 (Local Time) from PGUM Reporting Station
Scattered Clouds Scattered Clouds  
Wind Chill: 83°   Ceiling: Unl
Heat Index: 92°   Visibility: 10mi
Dew Point: 77°   Wind: 8mph
Humidity: 82%   Direction: 70°ENE
Pressure: 29.92"   Gusts: NA
Location:  13.47°N, 144.71°E
Report Text: PGUM 250854Z 07007KT 10SM FEW018 SCT080 28/25 A2992 RMK AO2 SLP124 T02830250 53014 $
Loading
Personal Weather Stations






























Interactive Weather Map New forecast layout! Learn more

10-Day Weather Forecast

Advertisements
Track Severe Weather on mobile